Platitera Tonouranon — SX7180 — position and weather

sailwx.info

Track history (hours):
 
Tides and Currents Weather Stations Pressure Air Temp Water Temp Dewpoint Dewpoint Depression Visibility Wind Speed Wind Dir Waves Ship Positions

Platitera Tonouranon

Last reported at 2015-May-04 12:32 UTC. Time now 2015-May-04 14:01 UTC.
Position N 37°39' E 023°25'.

; draft 3.8 m.

Type: Ship (hazmat cat A). MMSI: 237038200.

Date/timePositionNaut miles runAvg speedWind from/ knotsBaromVisibWave heightAir tempDewpointWater temp
2015-May-04 12:32N 37°39' E 023°25'13 6.7
2015-May-04 10:33N 37°27' E 023°32'9 2.6
2015-May-04 07:05N 37°36' E 023°33'611.8
2015-May-04 06:33N 37°42' E 023°36'1211.8
2015-May-04 05:33N 37°53' E 023°40'3 3.4
2015-May-04 04:33N 37°56' E 023°41'0 0.0
2015-May-03 17:10N 37°56' E 023°41'3 5.3
2015-May-03 16:34N 37°54' E 023°38'1211.6
2015-May-03 15:33N 37°47' E 023°27'2 2.0
2015-May-03 14:27N 37°45' E 023°26'0 0.0
2015-May-03 13:20N 37°45' E 023°26'1111.7
2015-May-03 12:24N 37°34' E 023°25'4 4.4
2015-May-03 11:28N 37°30' E 023°27'7 2.1
2015-May-03 08:09N 37°24' E 023°30'911.7
2015-May-03 07:26N 37°32' E 023°32'1012.0
2015-May-03 06:33N 37°42' E 023°33'1111.5
2015-May-03 05:34N 37°53' E 023°38'4 3.8
2015-May-03 04:33N 37°56' E 023°41'0 0.0
2015-May-02 16:33N 37°56' E 023°41'1211.6
2015-May-02 15:33N 37°49' E 023°30'5 2.2
2015-May-02 13:05N 37°45' E 023°25'811.5
2015-May-02 12:25N 37°37' E 023°25'12 6.3
2015-May-02 10:33N 37°27' E 023°32'5 2.5
2015-May-02 08:23N 37°22' E 023°29'1111.4
2015-May-02 07:26N 37°33' E 023°32'1112.1
2015-May-02 06:31N 37°43' E 023°34'1111.4
2015-May-02 05:33N 37°54' E 023°38'3 3.2
2015-May-02 04:33N 37°56' E 023°41'2 0.2
2015-May-01 19:34N 37°55' E 023°39'1110.6
2015-May-01 18:33N 37°52' E 023°27'8 7.8
2015-May-01 17:33N 37°58' E 023°22'8 7.8
2015-May-01 16:33N 37°51' E 023°24'1211.8
2015-May-01 15:33N 37°39' E 023°26'1211.9
2015-May-01 14:32N 37°28' E 023°32'7 6.9
2015-May-01 13:28N 37°21' E 023°28'1 1.1
2015-May-01 12:15N 37°22' E 023°29'7 9.6
2015-May-01 11:32N 37°29' E 023°29'2 1.5
2015-May-01 10:19N 37°30' E 023°27'1011.1
2015-May-01 09:25N 37°40' E 023°25'5 2.4
2015-May-01 07:22N 37°45' E 023°26'4 4.8
2015-May-01 06:34N 37°48' E 023°24'10 8.0
2015-May-01 05:18N 37°58' E 023°22'0 0.0
2015-May-01 04:32N 37°58' E 023°22'0 0.0
2015-Apr-30 19:33N 37°58' E 023°22'8 7.9
2015-Apr-30 18:33N 37°52' E 023°28'1111.5
2015-Apr-30 17:34N 37°56' E 023°41'0 0.2
2015-Apr-30 16:34N 37°56' E 023°41'1110.6
2015-Apr-30 15:34N 37°49' E 023°31'6 5.4
2015-Apr-30 14:25N 37°45' E 023°26'0 0.0
2015-Apr-30 13:05N 37°45' E 023°26'811.7
2015-Apr-30 12:26N 37°37' E 023°25'7 7.6
2015-Apr-30 11:28N 37°30' E 023°27'6 6.2
2015-Apr-30 10:33N 37°26' E 023°32'20 5.0
2015-Apr-30 06:33N 37°46' E 023°34'1111.5
2015-Apr-30 05:33N 37°56' E 023°41'0 0.1
2015-Apr-30 04:33N 37°56' E 023°41'1 0.1
2015-Apr-29 16:33N 37°55' E 023°40'1312.0
2015-Apr-29 15:29N 37°43' E 023°36'1211.8
2015-Apr-29 14:29N 37°31' E 023°33'15 2.4
2015-Apr-29 08:12N 37°45' E 023°26'2 1.5
2015-Apr-29 06:32N 37°47' E 023°27'1111.6
2015-Apr-29 05:33N 37°54' E 023°38'3 3.1
2015-Apr-29 04:33N 37°56' E 023°41'0 0.0
2015-Apr-28 16:33N 37°56' E 023°41'1110.6
2015-Apr-28 15:33N 37°50' E 023°30'6 4.3
2015-Apr-28 14:04N 37°45' E 023°26'0 0.0
2015-Apr-28 13:09N 37°45' E 023°26'710.1
2015-Apr-28 12:27N 37°38' E 023°25'8 5.6
2015-Apr-28 11:04N 37°30' E 023°27'510.3
2015-Apr-28 10:32N 37°26' E 023°32'6 6.2
2015-Apr-28 09:33N 37°21' E 023°28'0 0.1
2015-Apr-28 08:32N 37°21' E 023°28'1410.9
2015-Apr-28 07:16N 37°35' E 023°32'911.8
2015-Apr-28 06:33N 37°43' E 023°34'1211.7
2015-Apr-28 05:33N 37°54' E 023°39'3 2.7
2015-Apr-28 04:33N 37°56' E 023°41'1 0.1
2015-Apr-27 16:33N 37°56' E 023°40'1211.8
2015-Apr-27 15:33N 37°47' E 023°30'4 3.4
2015-Apr-27 14:21N 37°45' E 023°26'0 0.0
2015-Apr-27 13:12N 37°45' E 023°26'911.2
2015-Apr-27 12:26N 37°36' E 023°25'6 6.5
2015-Apr-27 11:28N 37°30' E 023°27'6 6.5
2015-Apr-27 10:33N 37°26' E 023°32'6 5.4
2015-Apr-27 09:31N 37°21' E 023°28'0 0.1
2015-Apr-27 08:33N 37°21' E 023°28'1110.6
2015-Apr-27 07:32N 37°32' E 023°32'1211.9
2015-Apr-27 06:32N 37°43' E 023°34'1211.9
2015-Apr-27 05:33N 37°54' E 023°39'2 2.5
2015-Apr-27 04:33N 37°56' E 023°41'0 0.0
2015-Apr-26 17:15N 37°56' E 023°41'5 7.3
2015-Apr-26 16:33N 37°52' E 023°37'1211.7
2015-Apr-26 15:33N 37°46' E 023°25'1 0.5
2015-Apr-26 13:32N 37°45' E 023°26'1111.2
2015-Apr-26 12:33N 37°34' E 023°25'6 3.9
2015-Apr-26 11:03N 37°29' E 023°29'6 9.0
2015-Apr-26 10:24N 37°23' E 023°29'21 5.4
2015-Apr-26 06:33N 37°44' E 023°33'1211.9
2015-Apr-26 05:33N 37°54' E 023°40'2 2.1
2015-Apr-26 04:33N 37°56' E 023°41'0 0.0
2015-Apr-25 16:33N 37°56' E 023°41'1010.5
2015-Apr-25 15:33N 37°49' E 023°32'11 3.6
2015-Apr-25 12:33N 37°39' E 023°25'9 7.9
2015-Apr-25 11:21N 37°30' E 023°27'4 1.0
2015-Apr-25 07:33N 37°32' E 023°32'1211.6
2015-Apr-25 06:31N 37°43' E 023°33'1111.8
2015-Apr-25 05:33N 37°54' E 023°39'3 3.0
2015-Apr-25 04:33N 37°56' E 023°41'0 0.0
2015-Apr-24 16:33N 37°56' E 023°41'1110.9
2015-Apr-24 15:33N 37°49' E 023°31'10 3.4
2015-Apr-24 12:33N 37°40' E 023°25'  
Track history (hours):
 
Tides and Currents Weather Stations Pressure Air Temp Water Temp Dewpoint Dewpoint Depression Visibility Wind Speed Wind Dir Waves Ship Positions

Platitera Tonouranon

Last reported at 2015-May-04 12:32 UTC. Time now 2015-May-04 14:01 UTC.
Position N 37°39' E 023°25'.

; draft 3.8 m.

Type: Ship (hazmat cat A). MMSI: 237038200.

Date/timePositionNaut miles runAvg speedWind from/ knotsBaromVisibWave heightAir tempDewpointWater temp
2015-May-04 12:32N 37°39' E 023°25'13 6.7
2015-May-04 10:33N 37°27' E 023°32'9 2.6
2015-May-04 07:05N 37°36' E 023°33'611.8
2015-May-04 06:33N 37°42' E 023°36'1211.8
2015-May-04 05:33N 37°53' E 023°40'3 3.4
2015-May-04 04:33N 37°56' E 023°41'0 0.0
2015-May-03 17:10N 37°56' E 023°41'3 5.3
2015-May-03 16:34N 37°54' E 023°38'1211.6
2015-May-03 15:33N 37°47' E 023°27'2 2.0
2015-May-03 14:27N 37°45' E 023°26'0 0.0
2015-May-03 13:20N 37°45' E 023°26'1111.7
2015-May-03 12:24N 37°34' E 023°25'4 4.4
2015-May-03 11:28N 37°30' E 023°27'7 2.1
2015-May-03 08:09N 37°24' E 023°30'911.7
2015-May-03 07:26N 37°32' E 023°32'1012.0
2015-May-03 06:33N 37°42' E 023°33'1111.5
2015-May-03 05:34N 37°53' E 023°38'4 3.8
2015-May-03 04:33N 37°56' E 023°41'0 0.0
2015-May-02 16:33N 37°56' E 023°41'1211.6
2015-May-02 15:33N 37°49' E 023°30'5 2.2
2015-May-02 13:05N 37°45' E 023°25'811.5
2015-May-02 12:25N 37°37' E 023°25'12 6.3
2015-May-02 10:33N 37°27' E 023°32'5 2.5
2015-May-02 08:23N 37°22' E 023°29'1111.4
2015-May-02 07:26N 37°33' E 023°32'1112.1
2015-May-02 06:31N 37°43' E 023°34'1111.4
2015-May-02 05:33N 37°54' E 023°38'3 3.2
2015-May-02 04:33N 37°56' E 023°41'2 0.2
2015-May-01 19:34N 37°55' E 023°39'1110.6
2015-May-01 18:33N 37°52' E 023°27'8 7.8
2015-May-01 17:33N 37°58' E 023°22'8 7.8
2015-May-01 16:33N 37°51' E 023°24'1211.8
2015-May-01 15:33N 37°39' E 023°26'1211.9
2015-May-01 14:32N 37°28' E 023°32'7 6.9
2015-May-01 13:28N 37°21' E 023°28'1 1.1
2015-May-01 12:15N 37°22' E 023°29'7 9.6
2015-May-01 11:32N 37°29' E 023°29'2 1.5
2015-May-01 10:19N 37°30' E 023°27'1011.1
2015-May-01 09:25N 37°40' E 023°25'5 2.4
2015-May-01 07:22N 37°45' E 023°26'4 4.8
2015-May-01 06:34N 37°48' E 023°24'10 8.0
2015-May-01 05:18N 37°58' E 023°22'0 0.0
2015-May-01 04:32N 37°58' E 023°22'0 0.0
2015-Apr-30 19:33N 37°58' E 023°22'8 7.9
2015-Apr-30 18:33N 37°52' E 023°28'1111.5
2015-Apr-30 17:34N 37°56' E 023°41'0 0.2
2015-Apr-30 16:34N 37°56' E 023°41'1110.6
2015-Apr-30 15:34N 37°49' E 023°31'6 5.4
2015-Apr-30 14:25N 37°45' E 023°26'0 0.0
2015-Apr-30 13:05N 37°45' E 023°26'811.7
2015-Apr-30 12:26N 37°37' E 023°25'7 7.6
2015-Apr-30 11:28N 37°30' E 023°27'6 6.2
2015-Apr-30 10:33N 37°26' E 023°32'20 5.0
2015-Apr-30 06:33N 37°46' E 023°34'1111.5
2015-Apr-30 05:33N 37°56' E 023°41'0 0.1
2015-Apr-30 04:33N 37°56' E 023°41'1 0.1
2015-Apr-29 16:33N 37°55' E 023°40'1312.0
2015-Apr-29 15:29N 37°43' E 023°36'1211.8
2015-Apr-29 14:29N 37°31' E 023°33'15 2.4
2015-Apr-29 08:12N 37°45' E 023°26'2 1.5
2015-Apr-29 06:32N 37°47' E 023°27'1111.6
2015-Apr-29 05:33N 37°54' E 023°38'3 3.1
2015-Apr-29 04:33N 37°56' E 023°41'0 0.0
2015-Apr-28 16:33N 37°56' E 023°41'1110.6
2015-Apr-28 15:33N 37°50' E 023°30'6 4.3
2015-Apr-28 14:04N 37°45' E 023°26'0 0.0
2015-Apr-28 13:09N 37°45' E 023°26'710.1
2015-Apr-28 12:27N 37°38' E 023°25'8 5.6
2015-Apr-28 11:04N 37°30' E 023°27'510.3
2015-Apr-28 10:32N 37°26' E 023°32'6 6.2
2015-Apr-28 09:33N 37°21' E 023°28'0 0.1
2015-Apr-28 08:32N 37°21' E 023°28'1410.9
2015-Apr-28 07:16N 37°35' E 023°32'911.8
2015-Apr-28 06:33N 37°43' E 023°34'1211.7
2015-Apr-28 05:33N 37°54' E 023°39'3 2.7
2015-Apr-28 04:33N 37°56' E 023°41'1 0.1
2015-Apr-27 16:33N 37°56' E 023°40'1211.8
2015-Apr-27 15:33N 37°47' E 023°30'4 3.4
2015-Apr-27 14:21N 37°45' E 023°26'0 0.0
2015-Apr-27 13:12N 37°45' E 023°26'911.2
2015-Apr-27 12:26N 37°36' E 023°25'6 6.5
2015-Apr-27 11:28N 37°30' E 023°27'6 6.5
2015-Apr-27 10:33N 37°26' E 023°32'6 5.4
2015-Apr-27 09:31N 37°21' E 023°28'0 0.1
2015-Apr-27 08:33N 37°21' E 023°28'1110.6
2015-Apr-27 07:32N 37°32' E 023°32'1211.9
2015-Apr-27 06:32N 37°43' E 023°34'1211.9
2015-Apr-27 05:33N 37°54' E 023°39'2 2.5
2015-Apr-27 04:33N 37°56' E 023°41'0 0.0
2015-Apr-26 17:15N 37°56' E 023°41'5 7.3
2015-Apr-26 16:33N 37°52' E 023°37'1211.7
2015-Apr-26 15:33N 37°46' E 023°25'1 0.5
2015-Apr-26 13:32N 37°45' E 023°26'1111.2
2015-Apr-26 12:33N 37°34' E 023°25'6 3.9
2015-Apr-26 11:03N 37°29' E 023°29'6 9.0
2015-Apr-26 10:24N 37°23' E 023°29'21 5.4
2015-Apr-26 06:33N 37°44' E 023°33'1211.9
2015-Apr-26 05:33N 37°54' E 023°40'2 2.1
2015-Apr-26 04:33N 37°56' E 023°41'0 0.0
2015-Apr-25 16:33N 37°56' E 023°41'1010.5
2015-Apr-25 15:33N 37°49' E 023°32'11 3.6
2015-Apr-25 12:33N 37°39' E 023°25'9 7.9
2015-Apr-25 11:21N 37°30' E 023°27'4 1.0
2015-Apr-25 07:33N 37°32' E 023°32'1211.6
2015-Apr-25 06:31N 37°43' E 023°33'1111.8
2015-Apr-25 05:33N 37°54' E 023°39'3 3.0
2015-Apr-25 04:33N 37°56' E 023°41'0 0.0
2015-Apr-24 16:33N 37°56' E 023°41'1110.9
2015-Apr-24 15:33N 37°49' E 023°31'10 3.4
2015-Apr-24 12:33N 37°40' E 023°25'  

Dump ship's entire track history